createdAt,value
2023-04-15T00:02:19.481Z,57.60
2023-04-15T00:04:45.865Z,57.26
2023-04-15T00:07:12.156Z,57.35
2023-04-15T00:09:38.416Z,57.46
2023-04-15T00:12:04.671Z,57.17
2023-04-15T00:14:30.936Z,57.24
2023-04-15T00:16:57.230Z,57.39
2023-04-15T00:19:23.580Z,57.01
2023-04-15T00:21:49.847Z,57.62
2023-04-15T00:24:16.089Z,57.61
2023-04-15T00:26:42.344Z,58.35
2023-04-15T00:29:08.616Z,58.83
2023-04-15T00:31:34.856Z,59.16
2023-04-15T00:34:01.119Z,59.02
2023-04-15T00:36:27.396Z,59.23
2023-04-15T00:38:53.666Z,59.29
2023-04-15T00:41:19.922Z,60.96
2023-04-15T00:43:46.157Z,61.03
2023-04-15T00:46:12.438Z,60.77
2023-04-15T00:48:38.739Z,60.70
2023-04-15T00:51:05.018Z,60.69
2023-04-15T00:53:31.298Z,60.65
2023-04-15T00:55:57.570Z,60.71
2023-04-15T00:58:23.826Z,60.17
2023-04-15T01:00:50.072Z,60.72
2023-04-15T01:03:16.472Z,59.79
2023-04-15T01:05:42.839Z,60.11
2023-04-15T01:08:09.076Z,59.82
2023-04-15T01:10:35.357Z,60.56
2023-04-15T01:13:01.643Z,60.05
2023-04-15T01:15:27.897Z,60.12
2023-04-15T01:17:54.196Z,58.99
2023-04-15T01:20:20.446Z,59.12
2023-04-15T01:22:46.692Z,58.97
2023-04-15T01:25:13.023Z,59.14
2023-04-15T01:27:39.269Z,59.22
2023-04-15T01:30:05.568Z,59.96
2023-04-15T01:32:31.869Z,60.00
2023-04-15T01:34:58.155Z,59.62
2023-04-15T01:37:24.419Z,59.93
2023-04-15T01:39:50.687Z,59.76
2023-04-15T01:42:16.968Z,59.52
2023-04-15T01:44:43.275Z,59.85
2023-04-15T01:47:09.521Z,59.92
2023-04-15T01:49:35.777Z,60.04
2023-04-15T01:52:02.022Z,60.16
2023-04-15T01:54:28.279Z,60.45
2023-04-15T01:56:54.547Z,59.64
2023-04-15T01:59:20.797Z,60.39
2023-04-15T02:01:47.102Z,60.24
2023-04-15T02:04:13.397Z,60.02
2023-04-15T02:06:39.706Z,60.10
2023-04-15T02:09:05.953Z,60.06
2023-04-15T02:11:32.268Z,60.23
2023-04-15T02:13:58.534Z,59.71
2023-04-15T02:16:24.828Z,60.29
2023-04-15T02:18:51.127Z,59.90
2023-04-15T02:21:17.364Z,60.05
2023-04-15T02:23:43.666Z,60.44
2023-04-15T02:26:09.925Z,60.05
2023-04-15T02:28:36.189Z,59.85
2023-04-15T02:31:02.436Z,59.71
2023-04-15T02:33:28.711Z,59.27
2023-04-15T02:35:54.976Z,59.35
2023-04-15T02:38:21.260Z,59.53
2023-04-15T02:40:47.535Z,59.77
2023-04-15T02:43:13.776Z,59.63
2023-04-15T02:45:40.025Z,59.52
2023-04-15T02:48:06.549Z,59.75
2023-04-15T02:50:33.060Z,59.25
2023-04-15T02:52:59.375Z,59.50
2023-04-15T02:55:25.655Z,59.63
2023-04-15T02:57:51.906Z,59.32
2023-04-15T03:00:18.184Z,59.33
2023-04-15T03:02:44.586Z,59.55
2023-04-15T03:05:10.908Z,59.32
2023-04-15T03:07:37.161Z,59.45
2023-04-15T03:10:03.393Z,59.69
2023-04-15T03:12:29.631Z,59.95
2023-04-15T03:14:55.870Z,59.69
2023-04-15T03:17:22.167Z,59.86
2023-04-15T03:19:48.451Z,59.73
2023-04-15T03:22:14.712Z,59.58
2023-04-15T03:24:40.976Z,59.20
2023-04-15T03:27:07.210Z,59.13
2023-04-15T03:29:33.470Z,59.35
2023-04-15T03:31:59.723Z,58.88
2023-04-15T03:34:25.964Z,59.64
2023-04-15T03:36:52.204Z,59.68
2023-04-15T03:39:18.458Z,60.09
2023-04-15T03:41:44.712Z,59.86
2023-04-15T03:44:10.971Z,59.75
2023-04-15T03:46:37.269Z,59.88
2023-04-15T03:49:03.658Z,60.04
2023-04-15T03:51:30.112Z,59.70
2023-04-15T03:53:56.365Z,60.26
2023-04-15T03:56:22.602Z,59.81
2023-04-15T03:58:48.864Z,59.53
2023-04-15T04:01:15.092Z,60.44
2023-04-15T04:03:41.491Z,60.23
2023-04-15T04:06:07.817Z,60.50
2023-04-15T04:08:34.106Z,60.48
2023-04-15T04:11:00.368Z,60.57
2023-04-15T04:13:26.640Z,60.86
2023-04-15T04:15:52.975Z,61.04
2023-04-15T04:18:19.269Z,60.74
2023-04-15T04:20:45.510Z,60.71
2023-04-15T04:23:11.767Z,60.68
2023-04-15T04:25:38.026Z,61.21
2023-04-15T04:28:04.280Z,60.82
2023-04-15T04:30:30.557Z,61.29
2023-04-15T04:32:56.832Z,61.01
2023-04-15T04:35:23.183Z,61.13
2023-04-15T04:37:49.438Z,61.56
2023-04-15T04:40:15.676Z,61.65
2023-04-15T04:42:41.916Z,61.30
2023-04-15T04:45:08.160Z,61.55
2023-04-15T04:47:34.447Z,61.86
2023-04-15T04:50:00.728Z,61.49
2023-04-15T04:52:26.970Z,62.18
2023-04-15T04:54:53.323Z,61.39
2023-04-15T04:57:19.572Z,61.69
2023-04-15T04:59:45.818Z,61.48
2023-04-15T05:02:12.118Z,61.78
2023-04-15T05:04:38.434Z,61.06
2023-04-15T05:07:04.680Z,61.41
2023-04-15T05:09:30.936Z,61.59
2023-04-15T05:11:57.202Z,61.44
2023-04-15T05:14:23.540Z,61.09
2023-04-15T05:16:49.842Z,61.12
2023-04-15T05:19:16.116Z,61.47
2023-04-15T05:21:42.353Z,61.83
2023-04-15T05:24:08.630Z,62.50
2023-04-15T05:26:34.893Z,61.94
2023-04-15T05:29:01.456Z,61.84
2023-04-15T05:31:28.108Z,61.80
2023-04-15T05:33:54.393Z,61.71
2023-04-15T05:36:20.664Z,62.41
2023-04-15T05:38:46.925Z,62.06
2023-04-15T05:41:13.217Z,62.23
2023-04-15T05:43:39.479Z,61.78
2023-04-15T05:46:05.737Z,61.96
2023-04-15T05:48:32.031Z,61.91
2023-04-15T05:50:58.274Z,61.62
2023-04-15T05:53:24.560Z,61.60
2023-04-15T05:55:50.842Z,62.05
2023-04-15T05:58:17.115Z,62.27
2023-04-15T06:00:43.378Z,61.64
2023-04-15T06:03:09.723Z,61.91
2023-04-15T06:05:36.073Z,62.35
2023-04-15T06:08:02.327Z,61.77
2023-04-15T06:10:28.679Z,62.71
2023-04-15T06:12:54.951Z,62.69
2023-04-15T06:15:21.196Z,62.76
2023-04-15T06:17:47.592Z,63.88
2023-04-15T06:20:13.878Z,64.10
2023-04-15T06:22:40.161Z,63.44
2023-04-15T06:25:06.428Z,63.80
2023-04-15T06:27:32.681Z,63.47
2023-04-15T06:29:58.939Z,64.35
2023-04-15T06:32:25.207Z,64.36
2023-04-15T06:34:51.512Z,63.78
2023-04-15T06:37:17.768Z,64.47
2023-04-15T06:39:44.019Z,64.38
2023-04-15T06:42:10.258Z,64.15
2023-04-15T06:44:36.566Z,64.19
2023-04-15T06:47:02.826Z,64.59
2023-04-15T06:49:29.093Z,64.23
2023-04-15T06:51:55.426Z,64.51
2023-04-15T06:54:21.680Z,65.07
2023-04-15T06:56:47.951Z,65.15
2023-04-15T06:59:14.231Z,65.47
2023-04-15T07:01:40.506Z,65.47
2023-04-15T07:04:06.779Z,65.75
2023-04-15T07:06:33.096Z,65.83
2023-04-15T07:08:59.458Z,66.13
2023-04-15T07:11:25.774Z,65.87
2023-04-15T07:13:52.020Z,66.24
2023-04-15T07:16:18.314Z,65.71
2023-04-15T07:18:44.594Z,65.86
2023-04-15T07:21:10.855Z,65.98
2023-04-15T07:23:37.149Z,65.66
2023-04-15T07:26:03.382Z,66.47
2023-04-15T07:28:29.650Z,65.98
2023-04-15T07:30:55.936Z,66.26
2023-04-15T07:33:22.203Z,66.00
2023-04-15T07:35:48.488Z,66.21
2023-04-15T07:38:14.742Z,66.55
2023-04-15T07:40:41.024Z,66.56
2023-04-15T07:43:07.327Z,65.55
2023-04-15T07:45:33.638Z,65.55
2023-04-15T07:47:59.979Z,66.81
2023-04-15T07:50:26.240Z,66.33
2023-04-15T07:52:52.517Z,66.28
2023-04-15T07:55:18.803Z,66.02
2023-04-15T07:57:45.076Z,66.50
2023-04-15T08:00:11.359Z,66.70
2023-04-15T08:02:39.684Z,66.48
2023-04-15T08:05:06.627Z,65.67
2023-04-15T08:07:32.978Z,65.82
2023-04-15T08:09:59.302Z,65.88
2023-04-15T08:12:25.568Z,66.21
2023-04-15T08:14:51.829Z,65.71
2023-04-15T08:17:18.122Z,65.37
2023-04-15T08:19:44.397Z,65.95
2023-04-15T08:22:17.951Z,65.17
2023-04-15T08:24:45.201Z,65.50
2023-04-15T08:27:11.474Z,65.84
2023-04-15T08:29:37.741Z,64.90
2023-04-15T08:32:04.022Z,65.04
2023-04-15T08:34:30.297Z,64.93
2023-04-15T08:36:56.536Z,64.33
2023-04-15T08:39:22.805Z,64.24
2023-04-15T08:41:49.065Z,64.28
2023-04-15T08:44:15.334Z,64.84
2023-04-15T08:46:41.658Z,64.73
2023-04-15T08:49:07.958Z,64.97
2023-04-15T08:51:34.213Z,64.78
2023-04-15T08:54:00.548Z,64.14
2023-04-15T08:56:27.012Z,64.52
2023-04-15T08:58:53.353Z,64.58
2023-04-15T09:01:19.642Z,64.02
2023-04-15T09:03:45.976Z,63.70
2023-04-15T09:06:12.281Z,63.76
2023-04-15T09:08:38.537Z,64.39
2023-04-15T09:11:04.856Z,64.22
2023-04-15T09:13:31.122Z,64.34
2023-04-15T09:15:59.015Z,64.45
2023-04-15T09:18:25.281Z,64.58
2023-04-15T09:20:51.536Z,64.30
2023-04-15T09:23:17.789Z,64.09
2023-04-15T09:25:44.051Z,64.11
2023-04-15T09:28:10.284Z,63.24
2023-04-15T09:30:36.569Z,63.04
2023-04-15T09:33:02.901Z,62.70
2023-04-15T09:35:29.204Z,62.75
2023-04-15T09:37:55.543Z,63.18
2023-04-15T09:40:21.832Z,62.81
2023-04-15T09:42:50.229Z,62.55
2023-04-15T09:45:16.608Z,62.39
2023-04-15T09:47:42.936Z,62.61
2023-04-15T09:50:09.262Z,62.66
2023-04-15T09:52:35.513Z,63.04
2023-04-15T09:55:01.763Z,62.65
2023-04-15T09:57:28.006Z,62.63
2023-04-15T09:59:54.293Z,62.14
2023-04-15T10:02:20.660Z,62.26
2023-04-15T10:04:47.085Z,61.92
2023-04-15T10:07:13.362Z,61.86
2023-04-15T10:09:39.720Z,61.54
2023-04-15T10:12:06.074Z,62.08
2023-04-15T10:14:32.342Z,62.23
2023-04-15T10:16:58.593Z,61.00
2023-04-15T10:19:24.824Z,60.54
2023-04-15T10:21:51.115Z,60.87
2023-04-15T10:24:17.394Z,60.45
2023-04-15T10:26:43.657Z,60.46
2023-04-15T10:29:09.964Z,60.48
2023-04-15T10:31:36.298Z,60.65
2023-04-15T10:34:02.799Z,60.24
2023-04-15T10:36:29.260Z,61.11
2023-04-15T10:38:55.549Z,61.72
2023-04-15T10:41:21.994Z,60.46
2023-04-15T10:43:48.364Z,61.17
2023-04-15T10:46:14.655Z,61.13
2023-04-15T10:48:40.914Z,61.24
2023-04-15T10:51:07.193Z,61.87
2023-04-15T10:53:33.458Z,60.89
2023-04-15T10:55:59.722Z,60.73
2023-04-15T10:58:26.007Z,59.69
2023-04-15T11:00:52.256Z,59.95
2023-04-15T11:03:18.604Z,59.97
2023-04-15T11:05:44.920Z,60.08
2023-04-15T11:08:11.186Z,59.13
2023-04-15T11:10:37.464Z,59.93
2023-04-15T11:13:03.756Z,60.05
2023-04-15T11:15:29.993Z,60.46
2023-04-15T11:17:56.302Z,60.04
2023-04-15T11:20:22.606Z,59.92
2023-04-15T11:22:48.856Z,59.60
2023-04-15T11:25:15.633Z,60.13
2023-04-15T11:27:41.927Z,59.47
2023-04-15T11:30:08.166Z,58.20
2023-04-15T11:32:34.473Z,59.25
2023-04-15T11:35:00.798Z,58.64
2023-04-15T11:37:27.060Z,57.37
2023-04-15T11:39:53.313Z,57.63
2023-04-15T11:42:19.601Z,58.06
2023-04-15T11:44:46.097Z,58.71
2023-04-15T11:47:12.397Z,58.17
2023-04-15T11:49:38.646Z,58.14
2023-04-15T11:52:04.889Z,57.93
2023-04-15T11:54:31.166Z,58.20
2023-04-15T11:56:57.431Z,58.08
2023-04-15T11:59:26.395Z,57.56
2023-04-15T12:01:56.643Z,57.75
2023-04-15T12:04:25.621Z,57.64
2023-04-15T12:06:52.362Z,57.50
2023-04-15T12:09:18.611Z,57.15
2023-04-15T12:11:44.864Z,57.55
2023-04-15T12:14:11.136Z,57.58
2023-04-15T12:16:48.360Z,57.65
2023-04-15T12:19:15.902Z,57.84
2023-04-15T12:21:42.614Z,57.00
2023-04-15T12:24:08.888Z,57.39
2023-04-15T12:26:35.154Z,57.88
2023-04-15T12:29:01.404Z,57.68
2023-04-15T12:31:27.696Z,58.36
2023-04-15T12:33:54.035Z,56.60
2023-04-15T12:36:20.468Z,56.86
2023-04-15T12:38:46.778Z,56.97
2023-04-15T12:41:13.031Z,56.99
2023-04-15T12:43:39.268Z,57.58
2023-04-15T12:46:05.592Z,56.59
2023-04-15T12:48:31.866Z,56.91
2023-04-15T12:50:58.131Z,56.54
2023-04-15T12:53:24.411Z,55.45
2023-04-15T12:55:50.678Z,56.05
2023-04-15T12:58:16.926Z,56.78
2023-04-15T13:00:43.206Z,55.95
2023-04-15T13:03:09.582Z,55.62
2023-04-15T13:05:35.866Z,55.59
2023-04-15T13:08:02.150Z,55.42
2023-04-15T13:10:28.463Z,56.14
2023-04-15T13:12:54.740Z,56.05
2023-04-15T13:15:20.983Z,55.72
2023-04-15T13:17:47.284Z,55.47
2023-04-15T13:20:13.592Z,55.42
2023-04-15T13:22:39.844Z,55.67
2023-04-15T13:25:06.122Z,55.54
2023-04-15T13:27:32.383Z,55.14
2023-04-15T13:29:58.621Z,55.52
2023-04-15T13:32:24.905Z,55.28
2023-04-15T13:34:51.172Z,56.17
2023-04-15T13:37:17.440Z,55.06
2023-04-15T13:39:43.695Z,56.15
2023-04-15T13:42:09.962Z,56.16
2023-04-15T13:44:36.199Z,56.25
2023-04-15T13:47:02.477Z,55.56
2023-04-15T13:49:28.734Z,55.87
2023-04-15T13:51:55.009Z,55.47
2023-04-15T13:54:21.287Z,54.93
2023-04-15T13:56:47.567Z,55.58
2023-04-15T13:59:13.877Z,56.11
2023-04-15T14:01:40.203Z,55.64
2023-04-15T14:04:06.987Z,56.11
2023-04-15T14:06:33.465Z,55.74
2023-04-15T14:08:59.767Z,55.58
2023-04-15T14:11:26.015Z,56.29
2023-04-15T14:13:52.604Z,56.81
2023-04-15T14:16:18.954Z,56.67
2023-04-15T14:18:45.223Z,56.86
2023-04-15T14:21:11.507Z,57.13
2023-04-15T14:23:37.780Z,57.31
2023-04-15T14:26:04.024Z,55.90
2023-04-15T14:28:30.279Z,57.26
2023-04-15T14:30:56.608Z,56.09
2023-04-15T14:33:22.872Z,56.35
2023-04-15T14:35:49.126Z,56.44
2023-04-15T14:38:15.383Z,56.03
2023-04-15T14:40:41.652Z,56.86
2023-04-15T14:43:08.016Z,56.63
2023-04-15T14:45:34.600Z,56.63
2023-04-15T14:48:00.939Z,57.41
2023-04-15T14:50:27.330Z,57.46
2023-04-15T14:52:53.598Z,57.64
2023-04-15T14:55:19.964Z,57.63
2023-04-15T14:57:46.223Z,57.78
2023-04-15T15:00:15.790Z,57.24
2023-04-15T15:02:42.637Z,57.58
2023-04-15T15:05:09.118Z,60.07
2023-04-15T15:07:35.456Z,60.09
2023-04-15T15:10:01.755Z,61.66
2023-04-15T15:12:28.018Z,59.83
2023-04-15T15:14:54.286Z,59.57
2023-04-15T15:17:20.531Z,60.40
2023-04-15T15:19:46.828Z,60.17
2023-04-15T15:22:13.064Z,60.24
2023-04-15T15:24:39.326Z,59.62
2023-04-15T15:27:05.593Z,59.13
2023-04-15T15:29:31.842Z,59.74
2023-04-15T15:31:58.097Z,60.10
2023-04-15T15:34:24.345Z,59.65
2023-04-15T15:36:50.606Z,60.09
2023-04-15T15:39:16.864Z,60.37
2023-04-15T15:41:43.125Z,59.91
2023-04-15T15:44:09.372Z,59.80
2023-04-15T15:46:35.803Z,59.75
2023-04-15T15:49:02.290Z,60.21
2023-04-15T15:51:28.738Z,60.43
2023-04-15T15:53:54.970Z,60.60
2023-04-15T15:56:21.222Z,59.93
2023-04-15T15:58:47.483Z,60.06
2023-04-15T16:01:13.778Z,60.50
2023-04-15T16:03:40.247Z,60.21
2023-04-15T16:06:06.652Z,59.85
2023-04-15T16:08:32.885Z,59.78
2023-04-15T16:10:59.134Z,59.94
2023-04-15T16:13:25.404Z,59.82
2023-04-15T16:15:51.691Z,59.58
2023-04-15T16:18:17.965Z,59.56
2023-04-15T16:20:44.225Z,60.06
2023-04-15T16:23:10.544Z,59.67
2023-04-15T16:25:36.865Z,59.43
2023-04-15T16:28:11.539Z,59.24
2023-04-15T16:30:41.204Z,59.38
2023-04-15T16:33:07.570Z,59.59
2023-04-15T16:35:34.732Z,59.61
2023-04-15T16:38:01.195Z,59.28
2023-04-15T16:40:27.475Z,60.28
2023-04-15T16:42:53.741Z,59.98
2023-04-15T16:45:19.988Z,60.11
2023-04-15T16:47:46.232Z,60.30
2023-04-15T16:50:12.517Z,60.45
2023-04-15T16:52:38.789Z,60.07
2023-04-15T16:55:05.071Z,60.62
2023-04-15T16:57:58.811Z,60.54
2023-04-15T17:00:17.565Z,60.56
2023-04-15T17:02:44.033Z,60.68
2023-04-15T17:05:10.519Z,61.04
2023-04-15T17:07:36.770Z,61.52
2023-04-15T17:10:03.023Z,61.42
2023-04-15T17:12:29.269Z,61.33
2023-04-15T17:14:55.538Z,61.41
2023-04-15T17:17:21.847Z,61.58
2023-04-15T17:19:48.107Z,60.95
2023-04-15T17:22:14.413Z,61.63
2023-04-15T17:24:40.676Z,61.31
2023-04-15T17:27:06.930Z,61.40
2023-04-15T17:29:33.180Z,61.51
2023-04-15T17:31:59.456Z,61.64
2023-04-15T17:34:25.728Z,61.87
2023-04-15T17:37:11.965Z,62.30
2023-04-15T17:39:38.251Z,61.81
2023-04-15T17:42:04.516Z,62.64
2023-04-15T17:44:30.789Z,62.77
2023-04-15T17:46:57.195Z,63.00
2023-04-15T17:49:23.551Z,62.52
2023-04-15T17:51:49.802Z,62.91
2023-04-15T17:54:16.129Z,62.18
2023-04-15T17:56:42.377Z,62.71
2023-04-15T17:59:08.645Z,62.82
2023-04-15T18:01:34.904Z,62.96
2023-04-15T18:04:01.389Z,62.34
2023-04-15T18:06:27.753Z,62.63
2023-04-15T18:08:53.998Z,62.95
2023-04-15T18:11:20.251Z,62.62
2023-04-15T18:13:46.499Z,62.87
2023-04-15T18:16:12.834Z,62.75
2023-04-15T18:18:39.103Z,62.92
2023-04-15T18:21:05.355Z,62.76
2023-04-15T18:23:31.614Z,63.04
2023-04-15T18:25:57.850Z,62.90
2023-04-15T18:28:24.276Z,62.86
2023-04-15T18:30:50.549Z,63.24
2023-04-15T18:33:16.794Z,63.33
2023-04-15T18:35:43.084Z,62.87
2023-04-15T18:38:09.362Z,62.70
2023-04-15T18:40:35.615Z,63.70
2023-04-15T18:43:01.946Z,62.87
2023-04-15T18:45:28.311Z,63.94
2023-04-15T18:47:54.648Z,63.45
2023-04-15T18:50:20.969Z,63.02
2023-04-15T18:52:47.243Z,63.30
2023-04-15T18:55:13.512Z,63.73
2023-04-15T18:57:39.757Z,63.56
2023-04-15T19:00:06.309Z,63.40
2023-04-15T19:02:32.759Z,63.76
2023-04-15T19:04:59.144Z,63.25
2023-04-15T19:07:25.422Z,63.16
2023-04-15T19:09:51.945Z,62.98
2023-04-15T19:12:18.248Z,63.49
2023-04-15T19:14:44.528Z,63.65
2023-04-15T19:17:10.846Z,63.44
2023-04-15T19:19:37.106Z,64.27
2023-04-15T19:22:03.493Z,63.83
2023-04-15T19:24:31.683Z,64.09
2023-04-15T19:26:59.167Z,63.48
2023-04-15T19:29:25.461Z,63.50
2023-04-15T19:31:51.764Z,63.54
2023-04-15T19:34:18.031Z,63.63
2023-04-15T19:36:44.383Z,63.53
2023-04-15T19:39:10.656Z,63.67
2023-04-15T19:41:36.924Z,63.76
2023-04-15T19:44:03.205Z,63.74
2023-04-15T19:46:29.530Z,63.65
2023-04-15T19:48:55.822Z,63.95
2023-04-15T19:51:22.083Z,64.01
2023-04-15T19:53:48.350Z,63.45
2023-04-15T19:56:14.624Z,63.70
2023-04-15T19:58:40.903Z,63.83
2023-04-15T20:01:07.220Z,63.61
2023-04-15T20:03:33.665Z,64.33
2023-04-15T20:05:59.986Z,63.77
2023-04-15T20:08:26.225Z,63.96
2023-04-15T20:10:52.473Z,63.84
2023-04-15T20:13:18.761Z,64.09
2023-04-15T20:15:45.176Z,64.31
2023-04-15T20:18:11.498Z,63.84
2023-04-15T20:20:37.781Z,63.72
2023-04-15T20:23:04.051Z,63.92
2023-04-15T20:25:30.399Z,63.64
2023-04-15T20:27:56.701Z,64.30
2023-04-15T20:30:22.971Z,63.94
2023-04-15T20:32:49.266Z,64.04
2023-04-15T20:35:15.534Z,64.63
2023-04-15T20:37:41.811Z,64.06
2023-04-15T20:40:08.095Z,64.26
2023-04-15T20:42:34.418Z,64.49
2023-04-15T20:45:00.709Z,64.28
2023-04-15T20:47:27.065Z,64.56
2023-04-15T20:49:53.364Z,64.33
2023-04-15T20:52:19.629Z,64.40
2023-04-15T20:54:45.896Z,64.41
2023-04-15T20:57:12.265Z,64.37
2023-04-15T20:59:38.528Z,64.08
2023-04-15T21:02:04.919Z,64.32
2023-04-15T21:04:31.296Z,64.54
2023-04-15T21:06:58.678Z,64.40
2023-04-15T21:09:24.972Z,64.49
2023-04-15T21:14:20.431Z,64.87
2023-04-15T21:16:46.785Z,65.13
2023-04-15T21:19:13.173Z,64.69
2023-04-15T21:21:39.448Z,64.61
2023-04-15T21:24:05.717Z,65.23
2023-04-15T21:26:31.976Z,65.45
2023-04-15T21:28:58.242Z,65.43
2023-04-15T21:31:24.509Z,65.87
2023-04-15T21:33:50.827Z,65.75
2023-04-15T21:36:17.096Z,65.84
2023-04-15T21:38:43.343Z,65.81
2023-04-15T21:41:09.612Z,65.53
2023-04-15T21:43:35.866Z,65.71
2023-04-15T21:46:23.613Z,65.49
2023-04-15T21:48:48.368Z,65.59
2023-04-15T21:51:14.638Z,65.52
2023-04-15T21:53:40.913Z,65.67
2023-04-15T21:56:07.188Z,65.45
2023-04-15T21:58:33.457Z,65.33
2023-04-15T22:00:59.870Z,65.40
2023-04-15T22:03:26.409Z,65.54
2023-04-15T22:05:52.793Z,65.50
2023-04-15T22:08:19.059Z,65.28
2023-04-15T22:10:45.347Z,65.46
2023-04-15T22:13:11.608Z,64.92
2023-04-15T22:15:37.857Z,65.35
2023-04-15T22:18:04.265Z,65.20
2023-04-15T22:20:30.553Z,65.01
2023-04-15T22:22:56.813Z,65.12
2023-04-15T22:25:23.088Z,65.21
2023-04-15T22:27:49.348Z,65.41
2023-04-15T22:30:15.620Z,65.59
2023-04-15T22:32:41.912Z,65.36
2023-04-15T22:35:08.220Z,65.69
2023-04-15T22:37:34.497Z,65.42
2023-04-15T22:40:00.772Z,65.05
2023-04-15T22:42:27.026Z,65.44
2023-04-15T22:44:53.301Z,65.04
2023-04-15T22:47:19.610Z,65.21
2023-04-15T22:49:45.938Z,65.16
2023-04-15T22:52:17.198Z,65.15
2023-04-15T22:54:49.980Z,65.24
2023-04-15T22:57:16.230Z,65.20
2023-04-15T22:59:42.507Z,64.70
2023-04-15T23:02:08.985Z,64.96
2023-04-15T23:04:35.397Z,65.08
2023-04-15T23:07:01.910Z,64.77
2023-04-15T23:09:28.237Z,65.00
2023-04-15T23:11:54.500Z,65.01
2023-04-15T23:14:20.768Z,64.64
2023-04-15T23:16:47.042Z,64.48
2023-04-15T23:19:13.311Z,64.39
2023-04-15T23:21:39.662Z,64.81
2023-04-15T23:24:05.913Z,64.75
2023-04-15T23:26:32.164Z,64.45
2023-04-15T23:28:58.456Z,64.79
2023-04-15T23:31:24.759Z,64.36
2023-04-15T23:33:51.047Z,64.77
2023-04-15T23:36:17.328Z,64.43
2023-04-15T23:38:43.581Z,65.00
2023-04-15T23:41:09.830Z,64.99
2023-04-15T23:43:36.121Z,64.92
2023-04-15T23:46:02.391Z,64.36
2023-04-15T23:48:28.645Z,64.86
2023-04-15T23:50:54.935Z,64.24
2023-04-15T23:53:21.202Z,64.85
2023-04-15T23:55:47.481Z,64.78
2023-04-15T23:58:13.748Z,64.87
